Time;durP1;ratioP1;P1;durP2;ratioP2;P2;SDS_P1;SDS_P2;PMS_P1;PMS_P2;Temp;Humidity;BMP_temperature;BMP_pressure;BME280_temperature;BME280_humidity;BME280_pressure;Samples;Min_cycle;Max_cycle;Signal;HPM_P1;HPM_P2
2022/06/01 00:01:53;;;;;;;25.00;15.50;;;461.50;2329.60;;;;;;5093246;28;20024;-81
2022/06/01 00:04:20;;;;;;;26.08;15.98;;;461.50;2278.40;;;;;;5093162;28;20486;-81
2022/06/01 00:06:46;;;;;;;22.80;14.80;;;461.30;2380.80;;;;;;5092882;28;20028;-82
2022/06/01 00:09:12;;;;;;;24.63;15.23;;;461.20;2380.80;;;;;;5093096;28;20404;-82
2022/06/01 00:11:39;;;;;;;23.90;14.93;;;461.20;2380.80;;;;;;5092847;28;20458;-82
2022/06/01 00:14:05;;;;;;;23.17;13.95;;;461.20;2380.80;;;;;;5093187;28;20067;-82
2022/06/01 00:16:31;;;;;;;20.92;13.05;;;461.20;2380.80;;;;;;5092739;28;20020;-82
2022/06/01 00:18:57;;;;;;;21.13;13.10;;;461.30;2278.40;;;;;;5092923;28;20031;-82
2022/06/01 00:21:24;;;;;;;16.63;12.57;;;461.50;2380.80;;;;;;5093000;28;20475;-82
2022/06/01 00:23:49;;;;;;;18.98;12.88;;;461.40;2380.80;;;;;;5093182;28;20052;-83
2022/06/01 00:26:16;;;;;;;20.13;14.05;;;461.30;2380.80;;;;;;5093858;28;20052;-82
2022/06/01 00:28:41;;;;;;;20.85;14.13;;;461.40;2380.80;;;;;;5094567;28;20169;-82
2022/06/01 00:31:10;;;;;;;22.50;13.75;;;461.30;2380.80;;;;;;5093462;28;20126;-81
2022/06/01 00:33:37;;;;;;;22.80;14.05;;;461.30;2380.80;;;;;;5092789;28;20115;-82
2022/06/01 00:36:05;;;;;;;21.20;13.50;;;461.10;2380.80;;;;;;5092835;28;20028;-82
2022/06/01 00:38:31;;;;;;;23.15;15.15;;;461.20;2380.80;;;;;;5094034;28;20475;-81
2022/06/01 00:40:56;;;;;;;22.60;15.63;;;461.10;2380.80;;;;;;5092387;28;20032;-82
2022/06/01 00:43:35;;;;;;;24.08;15.40;;;461.10;2380.80;;;;;;5092767;28;20020;-82
2022/06/01 00:46:01;;;;;;;21.55;15.02;;;461.20;2380.80;;;;;;5092605;28;20024;-82
2022/06/01 00:48:28;;;;;;;17.25;13.02;;;461.20;2380.80;;;;;;5092445;28;20454;-82
2022/06/01 00:50:54;;;;;;;19.80;12.38;;;461.10;2380.80;;;;;;5092607;28;20463;-82
2022/06/01 00:53:25;;;;;;;20.13;14.43;;;460.90;2380.80;;;;;;5092699;28;20020;-82
2022/06/01 00:55:56;;;;;;;20.83;13.88;;;460.80;2380.80;;;;;;5093479;28;20115;-82
2022/06/01 00:58:32;;;;;;;20.73;12.82;;;436.10;2355.20;;;;;;5092635;28;20028;-82
2022/06/01 01:00:59;;;;;;;20.98;13.70;;;435.90;2252.80;;;;;;5092395;28;20036;-82
2022/06/01 01:03:28;;;;;;;22.38;13.80;;;435.50;2355.20;;;;;;5092485;28;20028;-82
2022/06/01 01:06:14;;;;;;;24.25;13.57;;;435.80;2355.20;;;;;;5092532;28;20028;-82
2022/06/01 01:08:41;;;;;;;20.83;13.68;;;435.90;2355.20;;;;;;5084594;28;20040;-80
2022/06/01 01:11:12;;;;;;;19.67;12.73;;;435.70;2355.20;;;;;;5092365;28;20422;-82
2022/06/01 01:13:42;;;;;;;20.45;13.52;;;435.80;2355.20;;;;;;5092371;28;20425;-82
2022/06/01 01:16:10;;;;;;;19.60;13.68;;;435.70;2355.20;;;;;;5092230;28;20381;-82
2022/06/01 01:18:39;;;;;;;19.88;12.15;;;435.90;2355.20;;;;;;5092366;28;20024;-82
2022/06/01 01:21:35;;;;;;;19.70;13.20;;;436.00;2355.20;;;;;;5092300;28;20035;-82
2022/06/01 01:24:11;;;;;;;16.63;12.00;;;435.90;2355.20;;;;;;5084808;28;20035;-82
2022/06/01 01:26:37;;;;;;;24.08;14.63;;;435.90;2355.20;;;;;;5092251;28;20032;-82
2022/06/01 01:29:09;;;;;;;22.80;15.55;;;435.90;2176.00;;;;;;5091804;28;20520;-82
2022/06/01 01:31:37;;;;;;;26.70;16.25;;;435.80;2355.20;;;;;;5093486;28;20032;-82
2022/06/01 01:34:04;;;;;;;35.13;19.52;;;435.70;2355.20;;;;;;5092193;28;20071;-82
2022/06/01 01:36:36;;;;;;;33.70;19.15;;;436.00;2355.20;;;;;;5093794;28;20020;-82
2022/06/01 01:39:13;;;;;;;40.85;19.98;;;435.50;2355.20;;;;;;5096100;28;20032;-82
2022/06/01 01:41:44;;;;;;;27.95;17.67;;;435.50;2355.20;;;;;;5096053;28;20062;-82
2022/06/01 01:44:34;;;;;;;27.85;15.20;;;435.90;2355.20;;;;;;5095773;28;20028;-82
2022/06/01 01:47:01;;;;;;;20.67;13.73;;;435.60;2355.20;;;;;;5095995;28;20024;-82
2022/06/01 01:49:32;;;;;;;19.27;13.15;;;435.80;2355.20;;;;;;5095632;28;20035;-81
2022/06/01 01:52:02;;;;;;;21.35;12.75;;;435.90;2355.20;;;;;;5095646;28;20028;-82
2022/06/01 01:54:49;;;;;;;24.02;13.52;;;435.90;2355.20;;;;;;5095487;28;20028;-82
2022/06/01 01:57:36;;;;;;;23.33;14.73;;;436.10;2355.20;;;;;;5090849;28;20025;-81
2022/06/01 02:00:22;;;;;;;33.58;18.63;;;436.10;2355.20;;;;;;5075332;28;20116;-82
2022/06/01 02:02:55;;;;;;;30.23;17.55;;;435.90;2355.20;;;;;;5075315;28;20085;-82
2022/06/01 02:08:25;;;;;;;25.88;16.33;;;436.00;2355.20;;;;;;5076440;28;20392;-82
2022/06/01 02:13:43;;;;;;;34.35;16.48;;;436.00;2355.20;;;;;;5076322;28;20032;-82
2022/06/01 02:16:09;;;;;;;28.83;16.33;;;436.10;2355.20;;;;;;5074936;28;20028;-81
2022/06/01 02:18:40;;;;;;;25.98;15.13;;;436.10;2355.20;;;;;;5074760;28;20441;-82
2022/06/01 02:21:18;;;;;;;21.98;14.40;;;436.10;2355.20;;;;;;5074856;28;20039;-82
2022/06/01 02:23:44;;;;;;;25.83;15.73;;;435.90;2150.40;;;;;;5074917;28;20024;-82
2022/06/01 02:26:11;;;;;;;21.55;12.77;;;435.80;2355.20;;;;;;5074650;28;20029;-83
2022/06/01 02:28:41;;;;;;;21.75;13.18;;;435.80;2355.20;;;;;;5074805;28;20062;-82
2022/06/01 02:31:08;;;;;;;25.17;15.50;;;435.80;2355.20;;;;;;5074823;28;20044;-82
2022/06/01 02:33:35;;;;;;;24.30;14.98;;;435.60;2355.20;;;;;;5075399;28;20024;-82
2022/06/01 02:36:04;;;;;;;32.45;16.23;;;435.60;2355.20;;;;;;5074840;28;20093;-83
2022/06/01 02:38:39;;;;;;;31.52;16.45;;;435.50;2355.20;;;;;;5074480;28;20066;-82
2022/06/01 02:41:05;;;;;;;30.60;15.30;;;435.60;2355.20;;;;;;5074784;28;20487;-82
2022/06/01 02:43:31;;;;;;;29.10;15.80;;;435.60;2355.20;;;;;;5074660;28;20062;-83
2022/06/01 02:45:57;;;;;;;30.95;16.77;;;435.70;2355.20;;;;;;5074286;28;20029;-82
2022/06/01 02:48:23;;;;;;;33.05;18.05;;;435.80;2355.20;;;;;;5073546;28;20033;-82
2022/06/01 02:50:48;;;;;;;36.88;18.95;;;435.80;2355.20;;;;;;5074353;28;20455;-82
2022/06/01 02:53:14;;;;;;;43.33;20.63;;;435.80;2355.20;;;;;;5074047;28;20024;-81
2022/06/01 02:55:40;;;;;;;39.55;19.90;;;435.80;2355.20;;;;;;5074206;28;20029;-82
2022/06/01 02:58:06;;;;;;;41.33;19.42;;;435.70;2355.20;;;;;;5074367;28;20060;-82
2022/06/01 03:00:35;;;;;;;37.50;18.65;;;435.70;2355.20;;;;;;5073907;28;20056;-84
2022/06/01 03:03:02;;;;;;;37.13;18.42;;;435.80;2355.20;;;;;;5074114;28;20021;-82
2022/06/01 03:05:34;;;;;;;32.58;18.98;;;435.70;2304.00;;;;;;5075316;28;20099;-82
2022/06/01 03:08:01;;;;;;;31.08;17.50;;;435.60;2355.20;;;;;;5073631;28;20102;-83
2022/06/01 03:10:28;;;;;;;52.50;19.17;;;435.30;2355.20;;;;;;5074067;28;20113;-82
2022/06/01 03:12:55;;;;;;;53.03;21.85;;;435.50;2355.20;;;;;;5073997;28;20115;-82
2022/06/01 03:15:23;;;;;;;42.13;21.48;;;435.40;2355.20;;;;;;5073626;28;20020;-82
2022/06/01 03:17:49;;;;;;;37.33;19.80;;;435.30;2355.20;;;;;;5074016;28;20059;-81
2022/06/01 03:20:17;;;;;;;49.30;20.25;;;435.30;2355.20;;;;;;5073823;28;20028;-82
2022/06/01 03:22:46;;;;;;;60.08;19.80;;;435.20;2355.20;;;;;;5073482;28;20031;-81
2022/06/01 03:25:15;;;;;;;56.70;23.05;;;410.50;2355.20;;;;;;5073614;28;20057;-82
2022/06/01 03:27:42;;;;;;;54.88;22.77;;;410.40;2355.20;;;;;;5073232;28;20035;-82
2022/06/01 03:30:10;;;;;;;50.17;20.73;;;410.30;2355.20;;;;;;5073093;28;20464;-81
2022/06/01 03:32:36;;;;;;;54.50;22.33;;;410.30;2355.20;;;;;;5073434;28;20056;-84
2022/06/01 03:35:04;;;;;;;55.70;22.75;;;410.30;2355.20;;;;;;5073176;28;20380;-81
2022/06/01 03:37:31;;;;;;;55.45;24.90;;;410.30;2355.20;;;;;;5073466;28;20028;-82
2022/06/01 03:39:57;;;;;;;56.72;23.85;;;410.50;2355.20;;;;;;5074370;28;20063;-84
2022/06/01 03:42:23;;;;;;;104.30;24.13;;;410.50;2355.20;;;;;;5074260;28;20052;-83
2022/06/01 03:47:33;;;;;;;57.83;25.50;;;410.50;2355.20;;;;;;5074483;28;20074;-85
2022/06/01 03:49:58;;;;;;;100.60;23.60;;;410.50;2355.20;;;;;;5074214;28;20021;-84
2022/06/01 03:52:25;;;;;;;36.85;19.17;;;410.40;2355.20;;;;;;5074661;28;20024;-86
2022/06/01 03:54:51;;;;;;;35.50;18.63;;;410.50;2355.20;;;;;;5073040;28;20029;-84
2022/06/01 03:57:17;;;;;;;32.25;18.42;;;410.50;2355.20;;;;;;5082785;28;20032;-83
2022/06/01 03:59:43;;;;;;;33.03;16.92;;;435.30;2355.20;;;;;;5098116;28;20034;-84
2022/06/01 04:02:10;;;;;;;27.08;15.88;;;435.30;2355.20;;;;;;5097212;28;20008;-84
2022/06/01 04:04:37;;;;;;;27.65;14.65;;;435.40;2355.20;;;;;;5072951;28;20032;-84
2022/06/01 04:07:04;;;;;;;23.15;13.68;;;435.40;2355.20;;;;;;5073130;28;20028;-83
2022/06/01 04:09:29;;;;;;;23.17;13.60;;;435.40;2355.20;;;;;;5072894;28;20021;-83
2022/06/01 04:11:56;;;;;;;22.25;14.05;;;435.40;2355.20;;;;;;5072948;28;20163;-83
2022/06/01 04:14:22;;;;;;;19.75;13.38;;;435.40;2355.20;;;;;;5073025;28;20032;-83
2022/06/01 04:16:49;;;;;;;22.20;13.73;;;410.50;2355.20;;;;;;5072732;28;20035;-85
2022/06/01 04:19:15;;;;;;;20.23;12.45;;;410.40;2355.20;;;;;;5072916;28;20051;-84
2022/06/01 04:21:44;;;;;;;20.95;13.02;;;435.20;2355.20;;;;;;5072619;28;20036;-84
2022/06/01 04:24:19;;;;;;;18.52;12.60;;;435.30;2201.60;;;;;;5072469;28;20483;-84
2022/06/01 04:26:45;;;;;;;19.65;13.60;;;435.30;2278.40;;;;;;5073004;28;20078;-84
2022/06/01 04:29:11;;;;;;;26.13;14.30;;;435.40;2355.20;;;;;;5072712;28;20124;-84
2022/06/01 04:31:38;;;;;;;24.10;13.90;;;435.40;2355.20;;;;;;5073719;28;20108;-84
2022/06/01 04:34:04;;;;;;;26.30;14.88;;;435.30;2355.20;;;;;;5072761;28;20021;-84
2022/06/01 04:36:30;;;;;;;25.48;14.73;;;435.40;2355.20;;;;;;5072800;28;20456;-84
2022/06/01 04:38:56;;;;;;;24.98;14.10;;;435.50;2355.20;;;;;;5072578;28;20125;-84
2022/06/01 04:41:22;;;;;;;23.45;14.40;;;435.50;2355.20;;;;;;5072646;28;20450;-84
2022/06/01 04:43:48;;;;;;;26.63;14.45;;;435.50;2355.20;;;;;;5072568;28;20028;-83
2022/06/01 04:46:13;;;;;;;28.75;16.75;;;435.50;2355.20;;;;;;5072602;28;20078;-84
2022/06/01 04:48:39;;;;;;;25.50;14.20;;;435.60;2252.80;;;;;;5072691;28;20032;-84
2022/06/01 04:51:06;;;;;;;25.27;15.65;;;435.60;2355.20;;;;;;5072705;28;20529;-84
2022/06/01 04:53:32;;;;;;;29.77;15.63;;;435.60;2355.20;;;;;;5072392;28;20058;-84
2022/06/01 04:55:57;;;;;;;32.38;19.13;;;435.60;2355.20;;;;;;5072555;28;20032;-84
2022/06/01 04:58:24;;;;;;;30.27;16.38;;;435.60;2355.20;;;;;;5072392;28;20081;-84
2022/06/01 05:00:49;;;;;;;36.28;19.08;;;435.50;2355.20;;;;;;5072190;28;20029;-84
2022/06/01 05:03:16;;;;;;;38.20;21.63;;;435.50;2355.20;;;;;;5072342;28;20036;-84
2022/06/01 05:05:42;;;;;;;47.88;29.13;;;435.50;2355.20;;;;;;5072458;28;20109;-84
2022/06/01 05:08:09;;;;;;;52.25;23.55;;;435.50;2355.20;;;;;;5072274;28;20083;-84
2022/06/01 05:10:35;;;;;;;41.35;22.85;;;435.50;2355.20;;;;;;5072796;28;20035;-85
2022/06/01 05:13:02;;;;;;;27.05;17.67;;;435.50;2355.20;;;;;;5076205;28;20102;-84
2022/06/01 05:15:28;;;;;;;30.10;17.63;;;435.70;2355.20;;;;;;5076588;28;20523;-85
2022/06/01 05:17:54;;;;;;;30.42;18.02;;;435.80;2355.20;;;;;;5076372;28;20055;-84
2022/06/01 05:20:20;;;;;;;31.63;18.05;;;435.80;2355.20;;;;;;5076087;28;20479;-84
2022/06/01 05:22:45;;;;;;;36.40;19.67;;;435.70;2355.20;;;;;;5076326;28;20059;-84
2022/06/01 05:25:11;;;;;;;36.63;19.27;;;435.70;2355.20;;;;;;5076313;28;20452;-84
2022/06/01 05:27:37;;;;;;;35.25;18.75;;;435.80;2355.20;;;;;;5082353;28;20360;-83
2022/06/01 05:30:06;;;;;;;27.13;16.60;;;435.90;2355.20;;;;;;5095481;28;20024;-84
2022/06/01 05:32:32;;;;;;;27.45;17.27;;;436.00;2355.20;;;;;;5096343;28;20020;-84
2022/06/01 05:34:58;;;;;;;29.38;17.27;;;436.00;2355.20;;;;;;5096029;28;20429;-84
2022/06/01 05:37:24;;;;;;;28.23;18.50;;;436.10;2355.20;;;;;;5096417;28;20051;-84
2022/06/01 05:39:50;;;;;;;30.23;16.10;;;460.80;2380.80;;;;;;5097462;28;20056;-84
2022/06/01 05:42:16;;;;;;;32.00;15.27;;;460.80;2380.80;;;;;;5096023;28;20032;-84
2022/06/01 05:44:41;;;;;;;29.77;18.55;;;460.90;2227.20;;;;;;5096190;28;20034;-84
2022/06/01 05:47:07;;;;;;;35.97;20.42;;;460.90;2176.00;;;;;;5096507;28;20126;-84
2022/06/01 05:49:33;;;;;;;34.65;20.65;;;460.80;2380.80;;;;;;5095815;28;20028;-84
2022/06/01 05:51:59;;;;;;;27.67;17.95;;;460.90;2380.80;;;;;;5095920;28;20051;-83
2022/06/01 05:54:25;;;;;;;36.17;20.88;;;461.00;2150.40;;;;;;5095954;28;20020;-83
2022/06/01 05:56:50;;;;;;;27.35;19.38;;;461.10;2380.80;;;;;;5095727;28;20032;-84
2022/06/01 05:59:16;;;;;;;28.70;19.73;;;461.10;2380.80;;;;;;5095858;28;20028;-84
2022/06/01 06:01:42;;;;;;;25.60;19.02;;;461.10;2022.40;;;;;;5095553;28;20028;-84
2022/06/01 06:04:08;;;;;;;27.67;20.02;;;461.60;2380.80;;;;;;5095693;28;20034;-84
2022/06/01 06:06:34;;;;;;;31.65;19.13;;;461.20;2380.80;;;;;;5095631;28;20051;-84
2022/06/01 06:09:04;;;;;;;26.83;16.83;;;461.20;2380.80;;;;;;5095270;28;20470;-84
2022/06/01 06:11:32;;;;;;;30.52;17.77;;;461.30;2380.80;;;;;;5095102;28;20036;-84
2022/06/01 06:13:59;;;;;;;27.40;18.08;;;461.40;2380.80;;;;;;5095616;28;20463;-83
2022/06/01 06:16:27;;;;;;;24.30;17.00;;;461.50;2380.80;;;;;;5095212;28;20448;-83
2022/06/01 06:18:57;;;;;;;23.30;16.17;;;461.50;2380.80;;;;;;5095453;28;20380;-83
2022/06/01 06:21:24;;;;;;;19.52;14.50;;;461.60;2380.80;;;;;;5095564;28;20097;-83
2022/06/01 06:23:50;;;;;;;20.50;14.13;;;486.40;2380.80;;;;;;5093729;28;20085;-83
2022/06/01 06:26:17;;;;;;;24.48;14.48;;;486.50;2380.80;;;;;;5095333;28;20036;-83
2022/06/01 06:28:44;;;;;;;22.02;13.90;;;486.60;2380.80;;;;;;5096478;28;20107;-83
2022/06/01 06:31:10;;;;;;;27.90;16.63;;;486.60;2380.80;;;;;;5094854;28;20036;-81
2022/06/01 06:33:36;;;;;;;20.35;14.30;;;486.70;2380.80;;;;;;5096357;28;20371;-81
2022/06/01 06:36:05;;;;;;;19.00;13.98;;;486.70;2380.80;;;;;;5095161;28;20020;-82
2022/06/01 06:38:33;;;;;;;17.83;12.20;;;486.70;2380.80;;;;;;5094672;28;20131;-81
2022/06/01 06:41:00;;;;;;;18.77;12.70;;;487.00;2380.80;;;;;;5094921;28;20379;-81
2022/06/01 06:43:29;;;;;;;15.65;11.25;;;512.40;2380.80;;;;;;5094619;28;20462;-81
2022/06/01 06:46:04;;;;;;;19.08;12.90;;;487.30;2380.80;;;;;;5095089;28;20024;-82
2022/06/01 06:48:29;;;;;;;17.98;13.20;;;512.10;2380.80;;;;;;5095179;28;20058;-82
2022/06/01 06:50:56;;;;;;;17.48;12.50;;;512.20;2380.80;;;;;;5094529;28;20040;-82
2022/06/01 06:53:22;;;;;;;19.63;13.07;;;512.20;2380.80;;;;;;5094770;28;20054;-82
2022/06/01 06:55:48;;;;;;;16.75;10.85;;;512.40;2380.80;;;;;;5094740;28;20032;-81
2022/06/01 06:58:14;;;;;;;17.70;11.82;;;512.80;2380.80;;;;;;5094360;28;20066;-82
2022/06/01 07:00:40;;;;;;;15.77;10.48;;;537.70;2406.40;;;;;;5094329;28;20116;-81
2022/06/01 07:03:06;;;;;;;14.75;9.85;;;537.80;2406.40;;;;;;5095550;28;20069;-82
2022/06/01 07:08:17;;;;;;;15.90;10.75;;;538.00;2406.40;;;;;;5095777;28;20054;-81
2022/06/01 07:10:43;;;;;;;14.02;9.82;;;538.00;2406.40;;;;;;5094083;28;20089;-82
2022/06/01 07:13:10;;;;;;;13.25;9.50;;;538.00;2406.40;;;;;;5111383;28;20077;-81
2022/06/01 07:15:36;;;;;;;16.17;9.30;;;538.20;2406.40;;;;;;5095527;28;20107;-82
2022/06/01 07:18:03;;;;;;;14.77;9.35;;;538.20;2406.40;;;;;;5110978;28;20115;-82
2022/06/01 07:20:29;;;;;;;16.55;9.07;;;538.40;2406.40;;;;;;5110997;28;20028;-82
2022/06/01 07:22:56;;;;;;;19.55;9.95;;;563.60;2432.00;;;;;;5111290;28;20051;-82
2022/06/01 07:25:22;;;;;;;13.65;9.20;;;563.30;2432.00;;;;;;5110841;28;20031;-81
2022/06/01 07:27:51;;;;;;;14.60;9.25;;;563.30;2432.00;;;;;;5110780;28;20024;-81
2022/06/01 07:30:17;;;;;;;12.55;8.73;;;563.60;2432.00;;;;;;5080533;28;20098;-81
2022/06/01 07:32:45;;;;;;;14.48;9.10;;;563.70;2432.00;;;;;;5090180;28;20032;-80
2022/06/01 07:35:11;;;;;;;15.57;8.77;;;563.90;2432.00;;;;;;5089966;28;20092;-80
2022/06/01 07:43:06;;;;;;;11.45;7.32;;;589.00;2432.00;;;;;;5074538;28;20043;-78
2022/06/01 07:45:42;;;;;;;10.57;7.80;;;589.00;2432.00;;;;;;5090043;28;20021;-79
2022/06/01 07:48:09;;;;;;;15.40;9.10;;;589.20;2432.00;;;;;;5089801;28;20048;-80
2022/06/01 07:50:36;;;;;;;18.88;8.90;;;589.60;2432.00;;;;;;5089883;28;20029;-80
2022/06/01 07:53:04;;;;;;;14.98;7.85;;;614.40;2432.00;;;;;;5090029;28;20028;-79
2022/06/01 07:55:30;;;;;;;12.95;8.70;;;614.60;2432.00;;;;;;5099543;28;20016;-81
2022/06/01 07:57:56;;;;;;;14.00;8.10;;;614.80;2432.00;;;;;;5092549;28;20077;-80
2022/06/01 08:00:22;;;;;;;14.80;8.75;;;615.00;2432.00;;;;;;5093005;28;20119;-80
2022/06/01 08:02:48;;;;;;;17.25;8.40;;;615.10;2432.00;;;;;;5092814;28;20028;-81
2022/06/01 08:05:15;;;;;;;12.57;7.30;;;615.20;2432.00;;;;;;5092846;28;20429;-82
2022/06/01 08:07:42;;;;;;;11.45;7.53;;;640.00;2432.00;;;;;;5092757;28;20408;-80
2022/06/01 08:10:09;;;;;;;14.65;7.50;;;640.10;2432.00;;;;;;5093069;28;20113;-80
2022/06/01 08:15:21;;;;;;;15.27;8.63;;;640.50;2432.00;;;;;;5094338;28;20028;-80
2022/06/01 08:17:47;;;;;;;13.77;8.88;;;640.50;2432.00;;;;;;5093069;28;20028;-80
2022/06/01 08:20:15;;;;;;;10.77;8.43;;;640.70;2432.00;;;;;;5092524;28;20479;-80
2022/06/01 08:22:41;;;;;;;12.98;9.13;;;640.80;2432.00;;;;;;5092845;28;20020;-79
2022/06/01 08:25:09;;;;;;;14.43;10.00;;;665.60;2432.00;;;;;;5092610;28;20489;-80
2022/06/01 08:27:34;;;;;;;15.00;9.02;;;665.70;2432.00;;;;;;5092993;28;20048;-79
2022/06/01 08:30:00;;;;;;;15.30;9.05;;;665.90;2432.00;;;;;;5092905;28;20062;-80
2022/06/01 08:32:26;;;;;;;13.65;8.18;;;640.50;2432.00;;;;;;5092513;28;20279;-81
2022/06/01 08:34:52;;;;;;;12.20;9.05;;;640.40;2432.00;;;;;;5091604;28;20039;-79
2022/06/01 08:37:18;;;;;;;14.88;8.45;;;640.70;2432.00;;;;;;5092697;28;20077;-79
2022/06/01 08:39:44;;;;;;;17.10;8.52;;;640.90;2432.00;;;;;;5093829;28;20467;-81
2022/06/01 08:42:16;;;;;;;15.57;8.77;;;665.70;2432.00;;;;;;5092677;28;20364;-80
2022/06/01 08:44:46;;;;;;;13.38;7.32;;;666.20;2432.00;;;;;;5092445;28;20051;-79
2022/06/01 08:47:30;;;;;;;13.57;7.60;;;666.40;2432.00;;;;;;5091818;28;20028;-80
2022/06/01 08:49:59;;;;;;;11.73;7.40;;;691.20;2432.00;;;;;;5092657;28;20077;-79
2022/06/01 08:52:28;;;;;;;19.92;7.75;;;666.20;2432.00;;;;;;5092394;28;20032;-79
2022/06/01 08:54:54;;;;;;;13.05;7.50;;;666.20;2432.00;;;;;;5092228;28;20074;-80
2022/06/01 08:57:31;;;;;;;16.40;8.15;;;666.20;2432.00;;;;;;5092503;28;20024;-80
2022/06/01 09:00:08;;;;;;;11.73;7.95;;;691.30;2432.00;;;;;;5092462;28;20198;-78
2022/06/01 09:02:57;;;;;;;13.10;7.53;;;691.60;2432.00;;;;;;5092244;28;20028;-77
2022/06/01 09:05:31;;;;;;;12.80;7.68;;;691.70;2432.00;;;;;;5092337;28;20024;-79
2022/06/01 09:08:00;;;;;;;17.95;7.70;;;691.60;2406.40;;;;;;5090545;28;20391;-78
2022/06/01 09:10:51;;;;;;;13.50;6.82;;;691.50;2406.40;;;;;;5092203;28;20027;-78
2022/06/01 09:13:23;;;;;;;12.57;7.05;;;691.60;2380.80;;;;;;5093384;28;20032;-78
2022/06/01 09:16:06;;;;;;;14.82;9.95;;;692.10;2355.20;;;;;;5091630;28;20073;-78
2022/06/01 09:18:41;;;;;;;13.73;9.05;;;717.00;2329.60;;;;;;5091876;28;20378;-77
2022/06/01 09:24:13;;;;;;;9.93;6.07;;;717.40;2252.80;;;;;;5093558;28;20035;-81
2022/06/01 09:26:57;;;;;;;10.93;6.30;;;717.70;2252.80;;;;;;5092247;28;20031;-79
2022/06/01 09:29:27;;;;;;;14.63;6.50;;;742.50;2278.40;;;;;;5091882;28;20456;-79
2022/06/01 09:32:07;;;;;;;8.40;5.32;;;742.50;2227.20;;;;;;5092025;28;20494;-80
2022/06/01 09:34:35;;;;;;;15.38;6.82;;;742.50;2201.60;;;;;;5093135;28;20498;-80
2022/06/01 09:37:08;;;;;;;13.27;6.30;;;742.60;2201.60;;;;;;5092095;28;20107;-79
2022/06/01 09:39:37;;;;;;;12.25;5.43;;;742.90;2201.60;;;;;;5092303;28;20024;-79
2022/06/01 09:42:25;;;;;;;10.73;6.13;;;742.60;2176.00;;;;;;5091730;28;20024;-80
2022/06/01 09:44:52;;;;;;;10.18;5.68;;;742.80;2201.60;;;;;;5093261;28;20048;-80
2022/06/01 09:47:29;;;;;;;12.88;6.18;;;742.90;2176.00;;;;;;5093556;28;20099;-81
2022/06/01 09:49:59;;;;;;;11.98;6.30;;;742.90;2201.60;;;;;;5092074;28;20024;-78
2022/06/01 09:52:40;;;;;;;10.38;5.20;;;743.30;2201.60;;;;;;5091898;28;20099;-79
2022/06/01 09:55:21;;;;;;;10.38;5.15;;;768.00;2124.80;;;;;;5092026;28;20125;-79
2022/06/01 09:58:08;;;;;;;11.13;5.03;;;743.00;2124.80;;;;;;5093936;28;20365;-79
2022/06/01 10:06:21;;;;;;;11.98;5.68;;;768.10;2073.60;;;;;;5096793;28;20063;-79
2022/06/01 10:08:57;;;;;;;11.32;6.00;;;743.20;2099.20;;;;;;5095251;28;20070;-78
2022/06/01 10:11:36;;;;;;;11.40;6.50;;;742.60;2124.80;;;;;;5095259;28;20122;-84
2022/06/01 10:14:14;;;;;;;10.90;8.45;;;742.90;2124.80;;;;;;5095603;28;20399;-82
2022/06/01 10:16:46;;;;;;;13.77;7.63;;;743.10;2176.00;;;;;;5096089;28;20044;-81
2022/06/01 10:19:15;;;;;;;13.05;9.18;;;768.00;2099.20;;;;;;5094382;28;20040;-80
2022/06/01 10:21:52;;;;;;;18.55;6.82;;;768.30;2073.60;;;;;;5095574;28;20032;-78
2022/06/01 10:24:33;;;;;;;14.77;7.10;;;768.10;2073.60;;;;;;5094922;28;20483;-80
2022/06/01 10:27:00;;;;;;;10.40;5.28;;;743.30;2073.60;;;;;;5095056;28;20529;-80
2022/06/01 10:29:38;;;;;;;15.98;7.05;;;743.10;2099.20;;;;;;5094471;28;20024;-79
2022/06/01 10:32:12;;;;;;;11.50;6.07;;;768.00;2073.60;;;;;;5094665;28;20032;-78
2022/06/01 10:35:01;;;;;;;17.30;11.57;;;768.70;2048.00;;;;;;5096225;28;20032;-79
2022/06/01 10:37:59;;;;;;;13.75;6.55;;;794.00;2048.00;;;;;;5096242;28;20528;-79
2022/06/01 10:40:40;;;;;;;9.75;6.25;;;794.20;2022.40;;;;;;5091079;28;20109;-79
2022/06/01 10:43:19;;;;;;;14.68;6.63;;;819.20;1996.80;;;;;;5094826;28;20031;-79
2022/06/01 10:45:49;;;;;;;13.32;5.70;;;819.30;1945.60;;;;;;5095732;28;20028;-78
2022/06/01 10:48:23;;;;;;;10.13;4.95;;;819.60;1945.60;;;;;;5096197;28;20456;-79
2022/06/01 10:51:12;;;;;;;12.30;5.22;;;819.70;1920.00;;;;;;5094519;28;20035;-79
2022/06/01 10:54:00;;;;;;;12.35;5.13;;;819.90;1920.00;;;;;;5094490;28;20038;-78
2022/06/01 10:56:27;;;;;;;12.25;5.65;;;820.00;1894.40;;;;;;5094684;28;20031;-79
2022/06/01 10:58:58;;;;;;;11.65;4.95;;;844.80;1894.40;;;;;;5094261;28;20031;-79
2022/06/01 11:01:54;;;;;;;9.07;4.40;;;844.90;1868.80;;;;;;5094140;28;20534;-78
2022/06/01 11:04:39;;;;;;;8.73;4.38;;;844.90;1843.20;;;;;;5094305;28;20038;-78
2022/06/01 11:07:18;;;;;;;16.48;7.03;;;845.00;1817.60;;;;;;5093864;28;20023;-80
2022/06/01 11:10:06;;;;;;;11.05;5.43;;;845.40;1817.60;;;;;;5093600;28;20030;-81
2022/06/01 11:12:49;;;;;;;12.68;9.07;;;845.40;1817.60;;;;;;5094256;28;20032;-79
2022/06/01 11:15:30;;;;;;;15.40;6.50;;;845.60;1817.60;;;;;;5094002;28;20038;-79
2022/06/01 11:18:07;;;;;;;11.45;5.57;;;845.70;1792.00;;;;;;5095737;28;20123;-77
2022/06/01 11:21:00;;;;;;;11.13;4.35;;;845.70;1766.40;;;;;;5093820;28;20031;-78
2022/06/01 11:23:52;;;;;;;14.63;5.63;;;845.60;1740.80;;;;;;5094173;28;20077;-79
2022/06/01 11:26:49;;;;;;;12.13;5.03;;;870.40;1792.00;;;;;;5093922;28;20020;-79
2022/06/01 11:29:53;;;;;;;13.88;4.75;;;870.50;1740.80;;;;;;5094638;28;20020;-80
2022/06/01 11:32:30;;;;;;;15.02;4.93;;;870.60;1792.00;;;;;;5094776;28;20028;-79
2022/06/01 11:35:18;;;;;;;10.75;5.25;;;870.50;1740.80;;;;;;5093641;28;20034;-78
2022/06/01 11:37:59;;;;;;;11.50;5.03;;;845.20;1792.00;;;;;;5095536;28;20020;-79
2022/06/01 11:40:43;;;;;;;10.90;3.77;;;845.30;1740.80;;;;;;5093840;28;20073;-79
2022/06/01 11:43:31;;;;;;;11.80;4.40;;;844.90;1740.80;;;;;;5093566;28;20366;-79
2022/06/01 11:46:15;;;;;;;11.93;4.18;;;845.20;1715.20;;;;;;5084347;28;20029;-79
2022/06/01 11:48:52;;;;;;;14.13;5.43;;;845.50;1740.80;;;;;;5080965;28;20008;-79
2022/06/01 11:51:45;;;;;;;12.95;5.38;;;870.40;1740.80;;;;;;5098938;28;20016;-79
2022/06/01 11:54:16;;;;;;;13.43;5.72;;;845.40;1766.40;;;;;;5095294;28;20023;-79
2022/06/01 11:56:52;;;;;;;13.75;8.05;;;870.40;1689.60;;;;;;5073766;28;20030;-80
2022/06/01 11:59:44;;;;;;;10.68;4.07;;;870.50;1689.60;;;;;;5073816;28;20032;-79
2022/06/01 12:02:40;;;;;;;17.63;7.72;;;870.50;1664.00;;;;;;5074536;28;20036;-78
2022/06/01 12:05:23;;;;;;;13.45;6.00;;;870.80;1664.00;;;;;;5075606;28;20043;-78
2022/06/01 12:08:30;;;;;;;13.98;8.52;;;870.90;1638.40;;;;;;5094557;28;20051;-78
2022/06/01 12:11:03;;;;;;;9.50;4.13;;;871.00;1638.40;;;;;;5093369;28;20024;-79
2022/06/01 12:13:35;;;;;;;14.27;4.35;;;871.10;1638.40;;;;;;5093248;28;20032;-79
2022/06/01 12:16:04;;;;;;;11.23;4.93;;;871.10;1587.20;;;;;;5092667;28;20055;-80
2022/06/01 12:18:35;;;;;;;12.27;4.65;;;871.30;1612.80;;;;;;5092946;28;20111;-79
2022/06/01 12:21:16;;;;;;;9.50;3.80;;;896.20;1638.40;;;;;;5092962;28;20459;-77
2022/06/01 12:30:03;;;;;;;9.68;3.95;;;870.80;1638.40;;;;;;5093811;28;20093;-79
2022/06/01 12:32:50;;;;;;;12.65;4.30;;;870.40;1664.00;;;;;;5092391;28;20547;-79
2022/06/01 12:35:19;;;;;;;11.98;5.00;;;870.70;1664.00;;;;;;5108273;28;20484;-78
2022/06/01 12:37:57;;;;;;;13.88;5.50;;;871.10;1664.00;;;;;;5092376;28;20494;-79
2022/06/01 12:40:24;;;;;;;17.25;10.90;;;871.30;1664.00;;;;;;5094029;28;20364;-79
2022/06/01 12:42:54;;;;;;;12.07;6.43;;;896.20;1612.80;;;;;;5092545;28;20081;-79
2022/06/01 12:45:28;;;;;;;11.43;4.70;;;896.20;1638.40;;;;;;5093299;28;20036;-79
2022/06/01 12:48:01;;;;;;;12.93;4.72;;;896.30;1638.40;;;;;;5092568;28;20031;-79
2022/06/01 12:50:30;;;;;;;11.57;4.63;;;871.30;1587.20;;;;;;5092428;28;20503;-80
2022/06/01 12:53:18;;;;;;;11.77;6.28;;;896.10;1612.80;;;;;;5092241;28;20024;-80
2022/06/01 12:55:45;;;;;;;9.50;5.85;;;896.40;1612.80;;;;;;5092471;28;20081;-79
2022/06/01 12:58:29;;;;;;;11.75;7.03;;;896.10;1587.20;;;;;;5091847;28;20061;-79